KWRL/WRL METAR and TAF weather

Enter ICAO airport designator
Station Type Date Time Source
KWRL METAR 2019/08/26 07:53 UTC NOAA

KWRL 260753Z AUTO 30017G25KT 10SM FEW085 16/06 A3003 RMK AO2 PK WND 31029/0709 SLP128 T01560061


Station Type Date Time Source
KWRL Decoded METAR 2019/08/26 07:53 UTC NOAA

Station name not available
Aug 26, 2019 - 03:53 AM EDT / 2019.08.26 0753 UTC
Wind: from the WNW (300 degrees) at 20 MPH (17 KT) gusting to 29 MPH (25 KT):0
Visibility: 10 mile(s):0
Sky conditions: mostly clear
Temperature: 60.1 F (15.6 C)
Dew Point: 43.0 F (6.1 C)
Relative Humidity: 53%
Pressure (altimeter): 30.03 in. Hg (1016 hPa)
ob: KWRL 260753Z AUTO 30017G25KT 10SM FEW085 16/06 A3003 RMK AO2 PK WND 31029/0709 SLP128 T01560061
cycle: 8

Station Type Date Time Source
KWRL TAF 2019/08/26 06:22 UTC NOAA

TAF KWRL 260520Z 2606/2706 33011KT P6SM SCT120
FM261800 01007KT P6SM SKC

Example: see airport list